Terminal Aerodrome Forecast
Issued by NWS Wilmington, OH

Home | Current Version | Previous Version | Text Only | Print | Product List | Glossary On
Versions: 1 2 3 4 5 6 7 8 9 10 11 12 13 14 15 16 17 18 19 20 21 22 23 24 25
000
FTUS41 KILN 291130
TAFILN
TAF
KILN 291130Z 2912/3012 00000KT 2SM BR FEW250
     FM291300 25005KT P6SM FEW035 BKN150
     FM291900 27007KT P6SM VCTS BKN035CB
     FM292300 29007KT P6SM SCT120
     FM300600 34006KT P6SM SCT020=

USA.gov is the U.S. government's official web portal to all federal, state and local government web resources and services.